createdAt,value
2017-05-24T00:02:12.800Z,54.74
2017-05-24T00:04:40.379Z,55.20
2017-05-24T00:07:07.904Z,56.35
2017-05-24T00:09:35.464Z,55.95
2017-05-24T00:12:02.997Z,56.08
2017-05-24T00:14:30.591Z,56.33
2017-05-24T00:16:58.147Z,56.57
2017-05-24T00:19:25.676Z,57.33
2017-05-24T00:21:53.244Z,57.30
2017-05-24T00:24:20.768Z,57.61
2017-05-24T00:26:48.338Z,57.85
2017-05-24T00:29:15.859Z,57.74
2017-05-24T00:31:43.396Z,57.65
2017-05-24T00:34:10.963Z,57.68
2017-05-24T00:36:38.486Z,57.13
2017-05-24T00:39:06.080Z,56.51
2017-05-24T00:41:33.620Z,56.19
2017-05-24T00:44:01.223Z,56.06
2017-05-24T00:46:28.820Z,55.98
2017-05-24T00:48:56.351Z,55.77
2017-05-24T00:51:23.932Z,55.87
2017-05-24T00:53:51.453Z,54.99
2017-05-24T00:56:19.027Z,55.26
2017-05-24T00:58:46.568Z,54.83
2017-05-24T01:01:14.120Z,55.53
2017-05-24T01:03:41.657Z,55.67
2017-05-24T01:06:09.196Z,55.70
2017-05-24T01:08:36.761Z,56.10
2017-05-24T01:11:04.289Z,57.42
2017-05-24T01:13:31.853Z,58.72
2017-05-24T01:15:59.384Z,58.74
2017-05-24T01:18:26.912Z,58.84
2017-05-24T01:20:54.471Z,58.76
2017-05-24T01:23:21.993Z,58.39
2017-05-24T01:25:49.588Z,58.14
2017-05-24T01:28:17.124Z,57.87
2017-05-24T01:30:44.695Z,58.10
2017-05-24T01:33:12.385Z,57.85
2017-05-24T01:35:39.990Z,58.23
2017-05-24T01:38:07.622Z,58.07
2017-05-24T01:40:35.161Z,57.44
2017-05-24T01:43:02.745Z,57.75
2017-05-24T01:45:30.357Z,57.95
2017-05-24T01:47:57.901Z,58.11
2017-05-24T01:50:25.452Z,58.32
2017-05-24T01:52:53.017Z,58.36
2017-05-24T01:55:20.632Z,59.41
2017-05-24T01:57:48.224Z,59.78
2017-05-24T02:00:15.825Z,60.50
2017-05-24T02:02:43.757Z,60.85
2017-05-24T02:05:11.301Z,60.64
2017-05-24T02:07:38.831Z,60.98
2017-05-24T02:10:06.403Z,62.12
2017-05-24T02:12:33.957Z,62.45
2017-05-24T02:15:01.885Z,63.11
2017-05-24T02:17:29.415Z,62.75
2017-05-24T02:19:56.972Z,61.88
2017-05-24T02:22:24.539Z,60.38
2017-05-24T02:24:52.063Z,61.07
2017-05-24T02:27:19.640Z,60.90
2017-05-24T02:29:47.185Z,61.03
2017-05-24T02:32:14.767Z,60.16
2017-05-24T02:34:42.373Z,60.33
2017-05-24T02:37:09.919Z,60.47
2017-05-24T02:39:37.541Z,60.68
2017-05-24T02:42:05.140Z,61.70
2017-05-24T02:44:32.705Z,62.04
2017-05-24T02:47:00.233Z,62.74
2017-05-24T02:49:27.793Z,63.28
2017-05-24T02:51:55.353Z,61.40
2017-05-24T02:54:22.951Z,61.14
2017-05-24T02:56:50.622Z,61.04
2017-05-24T02:59:18.174Z,60.61
2017-05-24T03:01:45.695Z,60.01
2017-05-24T03:04:13.288Z,59.72
2017-05-24T03:06:40.818Z,60.45
2017-05-24T03:09:08.380Z,61.09
2017-05-24T03:11:35.912Z,62.43
2017-05-24T03:14:03.467Z,63.19
2017-05-24T03:16:31.025Z,63.00
2017-05-24T03:18:58.551Z,63.69
2017-05-24T03:21:26.116Z,63.60
2017-05-24T03:23:53.659Z,63.61
2017-05-24T03:26:21.192Z,64.01
2017-05-24T03:28:48.774Z,64.99
2017-05-24T03:31:16.297Z,65.49
2017-05-24T03:33:43.852Z,65.40
2017-05-24T03:36:11.418Z,64.59
2017-05-24T03:38:38.925Z,65.15
2017-05-24T03:41:06.444Z,64.55
2017-05-24T03:43:34.011Z,64.84
2017-05-24T03:46:01.561Z,64.59
2017-05-24T03:48:29.117Z,64.21
2017-05-24T03:50:56.889Z,64.04
2017-05-24T03:53:24.413Z,63.23
2017-05-24T03:55:51.959Z,63.10
2017-05-24T03:58:19.536Z,63.07
2017-05-24T04:00:47.043Z,63.41
2017-05-24T04:03:14.576Z,63.53
2017-05-24T04:05:42.165Z,63.61
2017-05-24T04:08:09.700Z,64.40
2017-05-24T04:10:37.274Z,65.64
2017-05-24T04:13:04.837Z,65.16
2017-05-24T04:15:32.366Z,64.93
2017-05-24T04:17:59.933Z,63.96
2017-05-24T04:20:27.537Z,63.76
2017-05-24T04:22:55.163Z,64.62
2017-05-24T04:25:22.706Z,65.36
2017-05-24T04:27:50.268Z,66.56
2017-05-24T04:30:17.894Z,66.87
2017-05-24T04:32:45.436Z,66.73
2017-05-24T04:35:13.074Z,67.78
2017-05-24T04:37:40.678Z,68.53
2017-05-24T04:40:08.224Z,68.13
2017-05-24T04:42:35.857Z,68.22
2017-05-24T04:45:03.386Z,68.46
2017-05-24T04:47:30.954Z,68.19
2017-05-24T04:49:58.501Z,68.79
2017-05-24T04:52:26.028Z,67.83
2017-05-24T04:54:53.675Z,67.72
2017-05-24T04:57:21.248Z,66.77
2017-05-24T04:59:48.827Z,66.27
2017-05-24T05:02:16.380Z,66.12
2017-05-24T05:04:44.268Z,66.45
2017-05-24T05:07:11.838Z,66.08
2017-05-24T05:09:39.484Z,66.24
2017-05-24T05:12:07.047Z,66.35
2017-05-24T05:14:34.631Z,67.17
2017-05-24T05:17:02.205Z,69.37
2017-05-24T05:19:29.731Z,67.99
2017-05-24T05:21:57.388Z,67.08
2017-05-24T05:24:24.932Z,66.25
2017-05-24T05:26:52.475Z,66.66
2017-05-24T05:29:20.024Z,65.85
2017-05-24T05:31:47.612Z,65.50
2017-05-24T05:34:15.173Z,65.53
2017-05-24T05:36:44.699Z,64.44
2017-05-24T05:39:12.343Z,64.11
2017-05-24T05:41:39.944Z,64.09
2017-05-24T05:44:07.625Z,64.06
2017-05-24T05:46:35.194Z,64.17
2017-05-24T05:49:02.737Z,60.64
2017-05-24T05:51:30.412Z,60.53
2017-05-24T05:53:58.051Z,60.50
2017-05-24T05:56:29.050Z,60.40
2017-05-24T05:58:56.623Z,60.11
2017-05-24T06:01:25.395Z,60.46
2017-05-24T06:03:54.296Z,60.50
2017-05-24T06:06:21.846Z,60.50
2017-05-24T06:08:49.429Z,61.36
2017-05-24T06:11:17.420Z,61.25
2017-05-24T06:13:44.975Z,63.18
2017-05-24T06:16:12.553Z,62.10
2017-05-24T06:18:40.234Z,63.17
2017-05-24T06:21:07.917Z,63.86
2017-05-24T06:23:35.452Z,63.03
2017-05-24T06:26:03.053Z,63.70
2017-05-24T06:28:30.592Z,63.60
2017-05-24T06:30:58.510Z,62.99
2017-05-24T06:33:26.101Z,63.31
2017-05-24T06:35:53.663Z,62.87
2017-05-24T06:38:21.386Z,62.82
2017-05-24T06:40:48.979Z,62.36
2017-05-24T06:43:16.567Z,62.51
2017-05-24T06:45:44.155Z,61.36
2017-05-24T06:48:11.730Z,58.55
2017-05-24T06:50:39.422Z,57.94
2017-05-24T06:53:07.374Z,57.46
2017-05-24T06:55:35.007Z,57.35
2017-05-24T06:58:02.575Z,57.00
2017-05-24T07:00:30.113Z,55.75
2017-05-24T07:02:57.784Z,56.33
2017-05-24T07:05:25.333Z,56.00
2017-05-24T07:07:52.947Z,56.43
2017-05-24T07:10:20.576Z,57.50
2017-05-24T07:12:48.240Z,57.14
2017-05-24T07:15:15.833Z,58.55
2017-05-24T07:17:43.430Z,55.73
2017-05-24T07:20:11.057Z,57.32
2017-05-24T07:22:38.946Z,56.17
2017-05-24T07:25:06.529Z,56.11
2017-05-24T07:27:34.190Z,55.83
2017-05-24T07:30:01.794Z,56.13
2017-05-24T07:32:29.348Z,56.66
2017-05-24T07:34:56.924Z,56.83
2017-05-24T07:37:24.558Z,56.89
2017-05-24T07:39:52.522Z,57.03
2017-05-24T07:42:20.047Z,57.65
2017-05-24T07:44:47.571Z,58.40
2017-05-24T07:47:15.157Z,59.67
2017-05-24T07:49:42.684Z,58.47
2017-05-24T07:52:10.331Z,59.99
2017-05-24T07:54:37.943Z,60.31
2017-05-24T07:57:05.514Z,60.38
2017-05-24T07:59:33.061Z,59.45
2017-05-24T08:02:00.626Z,59.95
2017-05-24T08:04:28.160Z,60.09
2017-05-24T08:06:56.047Z,60.07
2017-05-24T08:09:23.613Z,60.71
2017-05-24T08:11:51.187Z,60.09
2017-05-24T08:14:18.759Z,60.51
2017-05-24T08:16:46.316Z,60.48
2017-05-24T08:19:13.920Z,60.49
2017-05-24T08:21:41.481Z,61.13
2017-05-24T08:24:09.053Z,61.62
2017-05-24T08:26:36.635Z,61.71
2017-05-24T08:29:04.187Z,61.78
2017-05-24T08:31:31.740Z,61.81
2017-05-24T08:33:59.308Z,62.11
2017-05-24T08:36:26.840Z,62.40
2017-05-24T08:38:54.428Z,62.85
2017-05-24T08:41:21.985Z,63.09
2017-05-24T08:43:49.603Z,61.82
2017-05-24T08:46:17.148Z,62.07
2017-05-24T08:48:44.677Z,61.37
2017-05-24T08:51:12.255Z,61.16
2017-05-24T08:53:39.806Z,61.54
2017-05-24T08:56:07.460Z,62.27
2017-05-24T08:58:35.439Z,62.69
2017-05-24T09:01:03.033Z,63.00
2017-05-24T09:03:30.567Z,63.12
2017-05-24T09:05:58.113Z,63.20
2017-05-24T09:08:25.692Z,63.28
2017-05-24T09:10:53.277Z,63.96
2017-05-24T09:13:20.832Z,63.66
2017-05-24T09:15:48.389Z,63.79
2017-05-24T09:18:15.957Z,63.51
2017-05-24T09:20:43.527Z,64.39
2017-05-24T09:23:11.325Z,63.85
2017-05-24T09:25:38.915Z,63.37
2017-05-24T09:28:06.468Z,64.23
2017-05-24T09:30:34.060Z,64.05
2017-05-24T09:33:01.607Z,63.63
2017-05-24T09:35:29.201Z,62.49
2017-05-24T09:37:56.740Z,62.84
2017-05-24T09:40:24.277Z,63.28
2017-05-24T09:42:51.837Z,63.33
2017-05-24T09:45:19.399Z,62.37
2017-05-24T09:47:46.976Z,62.92
2017-05-24T09:50:14.520Z,62.95
2017-05-24T09:52:42.088Z,62.55
2017-05-24T09:55:09.651Z,62.38
2017-05-24T09:57:37.219Z,62.50
2017-05-24T10:00:04.782Z,61.82
2017-05-24T10:02:32.318Z,61.31
2017-05-24T10:04:59.902Z,61.32
2017-05-24T10:07:27.476Z,60.24
2017-05-24T10:09:55.002Z,60.75
2017-05-24T10:12:22.564Z,60.06
2017-05-24T10:14:50.146Z,60.87
2017-05-24T10:17:17.767Z,60.43
2017-05-24T10:19:45.312Z,60.16
2017-05-24T10:22:12.994Z,60.00
2017-05-24T10:24:40.524Z,60.33
2017-05-24T10:27:08.063Z,61.04
2017-05-24T10:29:35.629Z,61.22
2017-05-24T10:32:03.170Z,60.58
2017-05-24T10:34:30.777Z,60.79
2017-05-24T10:36:58.309Z,61.31
2017-05-24T10:39:25.824Z,59.56
2017-05-24T10:42:12.144Z,59.14
2017-05-24T10:44:39.736Z,58.35
2017-05-24T10:47:07.397Z,58.52
2017-05-24T10:49:34.970Z,58.44
2017-05-24T10:52:02.591Z,58.83
2017-05-24T10:54:30.241Z,59.61
2017-05-24T10:56:57.841Z,59.39
2017-05-24T10:59:25.447Z,59.57
2017-05-24T11:01:52.994Z,59.75
2017-05-24T11:04:20.583Z,59.33
2017-05-24T11:06:48.115Z,59.67
2017-05-24T11:09:15.668Z,60.20
2017-05-24T11:11:43.653Z,59.56
2017-05-24T11:14:11.191Z,59.72
2017-05-24T11:16:38.705Z,58.91
2017-05-24T11:19:06.280Z,59.24
2017-05-24T11:21:33.873Z,58.75
2017-05-24T11:24:01.440Z,58.69
2017-05-24T11:26:28.977Z,59.31
2017-05-24T11:28:56.565Z,59.35
2017-05-24T11:31:24.095Z,59.67
2017-05-24T11:33:51.652Z,59.92
2017-05-24T11:36:19.235Z,59.85
2017-05-24T11:38:46.816Z,59.84
2017-05-24T11:41:14.364Z,58.56
2017-05-24T11:43:41.968Z,58.37
2017-05-24T11:46:09.523Z,57.43
2017-05-24T11:48:37.108Z,57.18
2017-05-24T11:51:04.714Z,56.95
2017-05-24T11:53:32.277Z,56.77
2017-05-24T11:55:59.886Z,56.02
2017-05-24T11:58:27.457Z,55.95
2017-05-24T12:00:55.013Z,56.55
2017-05-24T12:03:22.679Z,56.09
2017-05-24T12:05:50.224Z,55.59
2017-05-24T12:08:17.826Z,55.92
2017-05-24T12:10:45.379Z,56.88
2017-05-24T12:13:13.008Z,55.41
2017-05-24T12:15:40.565Z,54.90
2017-05-24T12:18:08.125Z,55.62
2017-05-24T12:20:35.700Z,55.35
2017-05-24T12:23:03.251Z,55.12
2017-05-24T12:25:31.237Z,56.03
2017-05-24T12:27:58.869Z,56.79
2017-05-24T12:30:26.409Z,57.55
2017-05-24T12:32:54.055Z,57.41
2017-05-24T12:35:21.720Z,57.87
2017-05-24T12:37:49.629Z,57.60
2017-05-24T12:40:17.224Z,57.19
2017-05-24T12:42:44.773Z,56.67
2017-05-24T12:45:12.348Z,56.79
2017-05-24T12:47:39.891Z,56.99
2017-05-24T12:50:07.500Z,55.12
2017-05-24T12:52:35.049Z,55.42
2017-05-24T12:55:02.596Z,55.98
2017-05-24T12:57:30.178Z,55.95
2017-05-24T12:59:57.722Z,55.83
2017-05-24T13:02:25.332Z,54.59
2017-05-24T13:04:52.885Z,55.05
2017-05-24T13:07:20.466Z,54.89
2017-05-24T13:09:48.047Z,54.26
2017-05-24T13:12:15.605Z,54.22
2017-05-24T13:14:43.205Z,53.38
2017-05-24T13:17:10.780Z,52.77
2017-05-24T13:19:38.380Z,52.41
2017-05-24T13:22:05.915Z,51.96
2017-05-24T13:24:33.583Z,51.48
2017-05-24T13:27:01.186Z,51.84
2017-05-24T13:29:28.727Z,51.14
2017-05-24T13:31:56.258Z,50.35
2017-05-24T13:34:23.880Z,50.51
2017-05-24T13:36:51.512Z,50.24
2017-05-24T13:39:19.100Z,48.78
2017-05-24T13:41:46.717Z,48.80
2017-05-24T13:44:14.365Z,49.22
2017-05-24T13:46:41.972Z,48.74
2017-05-24T13:49:09.521Z,49.59
2017-05-24T13:51:37.085Z,48.99
2017-05-24T13:54:04.668Z,49.47
2017-05-24T13:56:32.219Z,49.50
2017-05-24T13:58:59.815Z,50.40
2017-05-24T14:01:27.375Z,50.40
2017-05-24T14:03:54.957Z,50.98
2017-05-24T14:06:22.521Z,50.36
2017-05-24T14:08:50.122Z,51.43
2017-05-24T14:11:17.688Z,51.43
2017-05-24T14:13:45.282Z,51.11
2017-05-24T14:16:12.797Z,51.32
2017-05-24T14:18:40.336Z,51.71
2017-05-24T14:21:07.918Z,51.49
2017-05-24T14:23:35.474Z,52.17
2017-05-24T14:26:03.035Z,51.61
2017-05-24T14:28:30.608Z,51.53
2017-05-24T14:30:58.869Z,51.73
2017-05-24T14:33:26.405Z,51.48
2017-05-24T14:35:53.953Z,51.15
2017-05-24T14:38:21.528Z,51.75
2017-05-24T14:40:49.055Z,51.66
2017-05-24T14:43:16.646Z,50.37
2017-05-24T14:45:44.216Z,49.84
2017-05-24T14:48:11.748Z,48.97
2017-05-24T14:50:39.376Z,49.16
2017-05-24T14:53:06.971Z,48.90
2017-05-24T14:55:34.544Z,47.81
2017-05-24T14:58:02.067Z,49.00
2017-05-24T15:00:29.660Z,49.32
2017-05-24T15:02:57.240Z,49.69
2017-05-24T15:05:24.787Z,50.04
2017-05-24T15:07:52.357Z,50.78
2017-05-24T15:10:19.945Z,51.01
2017-05-24T15:12:47.512Z,50.00
2017-05-24T15:15:15.485Z,49.83
2017-05-24T15:17:43.109Z,49.32
2017-05-24T15:20:10.704Z,48.69
2017-05-24T15:22:38.263Z,49.09
2017-05-24T15:25:05.783Z,49.05
2017-05-24T15:27:33.371Z,49.07
2017-05-24T15:30:00.937Z,48.35
2017-05-24T15:32:28.468Z,48.38
2017-05-24T15:34:56.031Z,47.89
2017-05-24T15:37:23.554Z,49.47
2017-05-24T15:39:51.213Z,49.06
2017-05-24T15:42:20.226Z,49.36
2017-05-24T15:44:47.723Z,49.80
2017-05-24T15:47:15.267Z,50.19
2017-05-24T15:49:42.871Z,50.44
2017-05-24T15:52:10.418Z,51.12
2017-05-24T15:54:37.955Z,50.98
2017-05-24T15:57:05.575Z,49.67
2017-05-24T15:59:33.123Z,49.62
2017-05-24T16:02:00.965Z,49.25
2017-05-24T16:04:28.559Z,49.96
2017-05-24T16:06:56.104Z,49.16
2017-05-24T16:09:23.763Z,48.22
2017-05-24T16:11:51.325Z,48.32
2017-05-24T16:14:19.092Z,48.80
2017-05-24T16:16:46.676Z,47.62
2017-05-24T16:19:14.224Z,46.66
2017-05-24T16:21:41.945Z,46.22
2017-05-24T16:24:09.490Z,46.71
2017-05-24T16:26:37.047Z,47.90
2017-05-24T16:29:04.733Z,48.53
2017-05-24T16:31:32.256Z,49.07
2017-05-24T16:33:59.798Z,49.49
2017-05-24T16:36:27.540Z,49.98
2017-05-24T16:38:55.085Z,50.02
2017-05-24T16:41:22.658Z,49.72
2017-05-24T16:43:50.380Z,49.84
2017-05-24T16:46:17.916Z,50.27
2017-05-24T16:48:45.551Z,50.83
2017-05-24T16:51:13.524Z,50.65
2017-05-24T16:53:41.057Z,50.21
2017-05-24T16:56:08.598Z,50.27
2017-05-24T16:58:36.157Z,49.73
2017-05-24T17:01:03.712Z,49.74
2017-05-24T17:03:31.411Z,49.34
2017-05-24T17:05:58.957Z,48.29
2017-05-24T17:08:26.513Z,47.95
2017-05-24T17:10:54.399Z,47.69
2017-05-24T17:13:22.001Z,47.09
2017-05-24T17:15:49.632Z,47.75
2017-05-24T17:18:17.210Z,48.05
2017-05-24T17:20:45.680Z,48.60
2017-05-24T17:23:13.366Z,48.21
2017-05-24T17:25:40.916Z,48.72
2017-05-24T17:28:08.441Z,48.46
2017-05-24T17:30:36.044Z,49.15
2017-05-24T17:33:03.587Z,48.75
2017-05-24T17:35:31.275Z,48.15
2017-05-24T17:37:58.820Z,48.12
2017-05-24T17:40:26.358Z,47.40
2017-05-24T17:42:54.064Z,47.68
2017-05-24T17:45:21.611Z,47.44
2017-05-24T17:47:49.143Z,48.08
2017-05-24T17:50:16.728Z,48.32
2017-05-24T17:52:44.253Z,48.60
2017-05-24T17:55:11.960Z,48.91
2017-05-24T17:57:39.483Z,49.06
2017-05-24T18:00:07.083Z,49.29
2017-05-24T18:02:34.663Z,49.72
2017-05-24T18:05:02.285Z,49.51
2017-05-24T18:07:30.365Z,50.24
2017-05-24T18:09:57.932Z,50.40
2017-05-24T18:12:25.477Z,50.48
2017-05-24T18:14:53.061Z,50.55
2017-05-24T18:17:20.616Z,50.52
2017-05-24T18:19:48.314Z,50.65
2017-05-24T18:22:15.843Z,50.77
2017-05-24T18:24:43.372Z,50.73
2017-05-24T18:27:10.939Z,51.38
2017-05-24T18:29:38.455Z,51.80
2017-05-24T18:32:06.300Z,52.10
2017-05-24T18:34:33.951Z,52.15
2017-05-24T18:37:01.497Z,51.91
2017-05-24T18:39:29.067Z,51.81
2017-05-24T18:41:56.617Z,51.97
2017-05-24T18:44:24.183Z,52.35
2017-05-24T18:46:51.720Z,52.62
2017-05-24T18:49:19.524Z,52.80
2017-05-24T18:51:47.134Z,53.05
2017-05-24T18:54:14.904Z,52.96
2017-05-24T18:56:42.496Z,53.07
2017-05-24T18:59:10.051Z,53.03
2017-05-24T19:01:37.646Z,53.12
2017-05-24T19:04:05.605Z,53.02
2017-05-24T19:06:33.140Z,53.38
2017-05-24T19:09:00.693Z,53.46
2017-05-24T19:11:28.607Z,53.81
2017-05-24T19:13:56.176Z,53.78
2017-05-24T19:16:23.708Z,54.15
2017-05-24T19:18:51.451Z,54.36
2017-05-24T19:21:18.988Z,54.40
2017-05-24T19:23:46.526Z,54.49
2017-05-24T19:26:14.105Z,54.73
2017-05-24T19:28:41.724Z,55.00
2017-05-24T19:31:09.449Z,55.16
2017-05-24T19:33:37.003Z,55.69
2017-05-24T19:36:04.552Z,55.84
2017-05-24T19:38:32.244Z,55.72
2017-05-24T19:40:59.783Z,55.68
2017-05-24T19:43:27.375Z,55.90
2017-05-24T19:45:55.098Z,56.08
2017-05-24T19:48:22.637Z,56.05
2017-05-24T19:50:50.416Z,55.95
2017-05-24T19:53:17.984Z,56.16
2017-05-24T19:55:45.538Z,56.35
2017-05-24T19:58:13.276Z,56.23
2017-05-24T20:00:40.816Z,56.37
2017-05-24T20:03:08.376Z,56.50
2017-05-24T20:05:35.942Z,56.47
2017-05-24T20:08:03.500Z,56.88
2017-05-24T20:10:31.184Z,56.51
2017-05-24T20:12:58.734Z,56.76
2017-05-24T20:15:26.273Z,56.86
2017-05-24T20:17:53.839Z,56.66
2017-05-24T20:20:21.366Z,56.83
2017-05-24T20:22:49.260Z,56.88
2017-05-24T20:25:16.828Z,57.15
2017-05-24T20:27:44.444Z,57.01
2017-05-24T20:30:12.007Z,57.26
2017-05-24T20:32:39.536Z,57.30
2017-05-24T20:35:07.272Z,57.22
2017-05-24T20:37:34.813Z,57.27
2017-05-24T20:40:02.342Z,57.76
2017-05-24T20:42:29.936Z,57.71
2017-05-24T20:44:57.521Z,58.15
2017-05-24T20:47:25.207Z,58.21
2017-05-24T20:49:52.803Z,58.68
2017-05-24T20:52:20.363Z,59.34
2017-05-24T20:54:48.198Z,59.15
2017-05-24T20:57:15.814Z,58.99
2017-05-24T20:59:43.406Z,58.96
2017-05-24T21:02:11.359Z,59.58
2017-05-24T21:04:38.879Z,59.28
2017-05-24T21:07:06.434Z,59.15
2017-05-24T21:09:34.025Z,59.40
2017-05-24T21:12:01.551Z,59.65
2017-05-24T21:14:29.123Z,59.22
2017-05-24T21:16:56.659Z,59.06
2017-05-24T21:19:24.243Z,58.72
2017-05-24T21:21:51.770Z,58.64
2017-05-24T21:24:19.457Z,58.96
2017-05-24T21:26:46.988Z,58.80
2017-05-24T21:29:14.551Z,58.69
2017-05-24T21:31:42.252Z,58.70
2017-05-24T21:34:09.787Z,58.79
2017-05-24T21:36:37.321Z,58.43
2017-05-24T21:39:04.887Z,58.44
2017-05-24T21:41:32.428Z,58.73
2017-05-24T21:44:00.132Z,59.02
2017-05-24T21:46:27.699Z,59.42
2017-05-24T21:48:55.244Z,58.95
2017-05-24T21:51:22.824Z,59.21
2017-05-24T21:53:50.346Z,59.57
2017-05-24T21:56:18.023Z,59.39
2017-05-24T21:58:45.548Z,59.81
2017-05-24T22:01:13.071Z,59.77
2017-05-24T22:03:40.814Z,60.14
2017-05-24T22:06:08.364Z,60.43
2017-05-24T22:08:35.914Z,60.88
2017-05-24T22:11:03.742Z,60.82
2017-05-24T22:13:31.295Z,61.02
2017-05-24T22:15:58.875Z,61.29
2017-05-24T22:18:26.616Z,61.45
2017-05-24T22:20:54.227Z,61.73
2017-05-24T22:23:21.778Z,61.92
2017-05-24T22:25:49.331Z,62.24
2017-05-24T22:28:16.864Z,62.86
2017-05-24T22:30:44.543Z,63.06
2017-05-24T22:33:12.072Z,63.35
2017-05-24T22:35:40.345Z,63.53
2017-05-24T22:38:08.026Z,64.39
2017-05-24T22:40:35.562Z,64.61
2017-05-24T22:43:03.086Z,64.69
2017-05-24T22:45:30.646Z,64.63
2017-05-24T22:47:58.191Z,64.69
2017-05-24T22:50:25.768Z,64.64
2017-05-24T22:52:53.300Z,64.90
2017-05-24T22:55:21.027Z,64.89
2017-05-24T22:57:48.616Z,65.05
2017-05-24T23:00:16.131Z,64.90
2017-05-24T23:02:43.999Z,65.13
2017-05-24T23:05:11.571Z,65.39
2017-05-24T23:07:39.155Z,65.13
2017-05-24T23:10:06.771Z,65.75
2017-05-24T23:12:34.296Z,65.59
2017-05-24T23:15:01.916Z,66.15
2017-05-24T23:17:29.522Z,66.33
2017-05-24T23:19:57.065Z,65.71
2017-05-24T23:22:24.821Z,66.73
2017-05-24T23:24:52.361Z,67.11
2017-05-24T23:27:19.923Z,67.45
2017-05-24T23:29:47.835Z,67.47
2017-05-24T23:32:15.371Z,67.69
2017-05-24T23:34:42.915Z,68.13
2017-05-24T23:37:10.479Z,68.35
2017-05-24T23:39:38.009Z,68.43
2017-05-24T23:42:05.688Z,68.60
2017-05-24T23:44:33.219Z,69.41
2017-05-24T23:47:00.776Z,69.29
2017-05-24T23:49:28.453Z,69.01
2017-05-24T23:51:56.002Z,69.22
2017-05-24T23:54:23.557Z,69.48
2017-05-24T23:56:51.135Z,69.49
2017-05-24T23:59:18.719Z,70.22
